Terminal Aerodrome Forecast
Issued by NWS North Platte, NE

Home | Current Version | Previous Version | Text Only | Print | Product List | Glossary On
Versions: 1 2 3 4 5 6 7 8 9 10 11 12 13 14 15 16 17
000
FTUS43 KLBF 251200 AAA
TAFVTN
TAF AMD
KVTN 251226Z 2512/2612 33009KT 6SM BR OVC005
      TEMPO 2512/2515 SCT008 OVC050
     FM251500 05007KT P6SM OVC008
     FM251900 07010KT P6SM OVC014
     FM252100 05008KT P6SM OVC025
     FM252200 08010KT P6SM BKN050=

USA.gov is the U.S. government's official web portal to all federal, state and local government web resources and services.